NSZ2011 EETN-ENGM
Flight info
| Callsign | NSZ2011 |
|---|---|
| Flight time | N/A |
| Altitude | 38000 |
| Route | PETOT DCT RUNGA DCT ARGIB/N0388F280 Z166 EBURI N623 ESEBA |
| Aircraft | B38M/M-SDE1FGHILORVWXY/HB1 |
Departure
| Time | 2026-04-29 17:28 |
|---|---|
| Airport | Lennart Meri Tallinn Airport (EETN) |
Arrival
| Time | N/A |
|---|---|
| Airport | Oslo-Gardermoen International Airport (ENGM) |
| Time | Latitude | Longitude | Altitude | Speed | Heading |
|---|---|---|---|---|---|
| 2026-04-29 17:14 | 59.41695 | 24.80265 | 164 ft | 0 kts | 181° |
| 2026-04-29 17:16 | 59.41718 | 24.80265 | 164 ft | 4 kts | 174° |
| 2026-04-29 17:16 | 59.41740 | 24.80248 | 164 ft | 4 kts | 131° |
| 2026-04-29 17:16 | 59.41749 | 24.80205 | 164 ft | 3 kts | 91° |
| 2026-04-29 17:16 | 59.41749 | 24.80191 | 164 ft | 0 kts | 91° |
| 2026-04-29 17:20 | 59.41749 | 24.80200 | 164 ft | 2 kts | 91° |
| 2026-04-29 17:21 | 59.41749 | 24.80244 | 164 ft | 5 kts | 91° |
| 2026-04-29 17:21 | 59.41743 | 24.80335 | 164 ft | 9 kts | 101° |
| 2026-04-29 17:21 | 59.41720 | 24.80459 | 164 ft | 11 kts | 131° |
| 2026-04-29 17:21 | 59.41647 | 24.80510 | 164 ft | 12 kts | 180° |
| 2026-04-29 17:22 | 59.41555 | 24.80507 | 164 ft | 14 kts | 180° |
| 2026-04-29 17:22 | 59.41523 | 24.80531 | 164 ft | 4 kts | 131° |
| 2026-04-29 17:22 | 59.41507 | 24.80624 | 164 ft | 12 kts | 95° |
| 2026-04-29 17:22 | 59.41506 | 24.80849 | 164 ft | 20 kts | 90° |
| 2026-04-29 17:23 | 59.41505 | 24.81144 | 164 ft | 22 kts | 90° |
| 2026-04-29 17:23 | 59.41504 | 24.81462 | 164 ft | 24 kts | 90° |
| 2026-04-29 17:23 | 59.41503 | 24.81801 | 164 ft | 26 kts | 90° |
| 2026-04-29 17:23 | 59.41502 | 24.82160 | 164 ft | 27 kts | 90° |
| 2026-04-29 17:24 | 59.41502 | 24.82539 | 164 ft | 28 kts | 90° |
| 2026-04-29 17:24 | 59.41500 | 24.82937 | 164 ft | 30 kts | 90° |
| 2026-04-29 17:24 | 59.41502 | 24.83351 | 164 ft | 31 kts | 92° |
| 2026-04-29 17:24 | 59.41498 | 24.83775 | 164 ft | 32 kts | 90° |
| 2026-04-29 17:25 | 59.41497 | 24.84123 | 164 ft | 25 kts | 90° |
| 2026-04-29 17:25 | 59.41496 | 24.84478 | 164 ft | 27 kts | 90° |
| 2026-04-29 17:25 | 59.41496 | 24.84852 | 164 ft | 28 kts | 90° |
| 2026-04-29 17:25 | 59.41494 | 24.85244 | 164 ft | 29 kts | 90° |
| 2026-04-29 17:26 | 59.41493 | 24.85656 | 164 ft | 31 kts | 90° |
| 2026-04-29 17:26 | 59.41492 | 24.86085 | 164 ft | 32 kts | 90° |
| 2026-04-29 17:26 | 59.41491 | 24.86499 | 164 ft | 18 kts | 90° |
| 2026-04-29 17:26 | 59.41495 | 24.86752 | 164 ft | 19 kts | 99° |
| 2026-04-29 17:27 | 59.41426 | 24.86883 | 164 ft | 13 kts | 169° |
| 2026-04-29 17:27 | 59.41342 | 24.86837 | 165 ft | 13 kts | 216° |
| 2026-04-29 17:27 | 59.41316 | 24.86666 | 164 ft | 15 kts | 271° |
| 2026-04-29 17:27 | 59.41317 | 24.86281 | 163 ft | 60 kts | 270° |
| 2026-04-29 17:28 | 59.41321 | 24.85006 | 165 ft | 125 kts | 270° |
| 2026-04-29 17:28 | 59.41327 | 24.82966 | 254 ft | 168 kts | 271° |
| 2026-04-29 17:28 | 59.41317 | 24.80603 | 917 ft | 178 kts | 271° |
| 2026-04-29 17:28 | 59.41286 | 24.78070 | 1687 ft | 190 kts | 272° |
| 2026-04-29 17:29 | 59.41309 | 24.75415 | 2412 ft | 200 kts | 278° |
| 2026-04-29 17:29 | 59.41496 | 24.72620 | 3068 ft | 210 kts | 281° |
| 2026-04-29 17:29 | 59.41701 | 24.69890 | 3557 ft | 198 kts | 282° |
| 2026-04-29 17:29 | 59.41911 | 24.67200 | 3645 ft | 200 kts | 281° |
| 2026-04-29 17:30 | 59.42107 | 24.64436 | 4229 ft | 212 kts | 281° |
| 2026-04-29 17:30 | 59.42316 | 24.61429 | 4702 ft | 232 kts | 281° |
| 2026-04-29 17:30 | 59.42536 | 24.58158 | 5173 ft | 251 kts | 281° |
| 2026-04-29 17:30 | 59.42760 | 24.54745 | 5897 ft | 256 kts | 281° |
| 2026-04-29 17:31 | 59.42989 | 24.51240 | 6694 ft | 261 kts | 281° |